createdAt,value
2023-03-08T00:01:12.505Z,8.90
2023-03-08T00:03:39.026Z,7.93
2023-03-08T00:06:06.645Z,8.17
2023-03-08T00:08:33.048Z,7.63
2023-03-08T00:10:59.583Z,8.43
2023-03-08T00:13:26.205Z,8.50
2023-03-08T00:15:53.067Z,8.67
2023-03-08T00:18:19.402Z,7.83
2023-03-08T00:20:45.819Z,9.30
2023-03-08T00:23:12.182Z,8.17
2023-03-08T00:25:38.553Z,9.30
2023-03-08T00:28:05.037Z,9.50
2023-03-08T00:30:31.447Z,9.13
2023-03-08T00:32:57.773Z,9.30
2023-03-08T00:35:24.239Z,9.40
2023-03-08T00:37:50.624Z,9.10
2023-03-08T00:40:17.229Z,9.07
2023-03-08T00:42:43.861Z,8.40
2023-03-08T00:45:11.035Z,8.87
2023-03-08T00:47:38.118Z,8.87
2023-03-08T00:50:04.912Z,8.27
2023-03-08T00:52:31.228Z,9.07
2023-03-08T00:54:57.553Z,7.70
2023-03-08T00:57:23.968Z,8.73
2023-03-08T00:59:50.319Z,8.40
2023-03-08T01:02:16.756Z,8.77
2023-03-08T01:04:43.130Z,9.30
2023-03-08T01:07:09.618Z,9.77
2023-03-08T01:09:36.016Z,9.90
2023-03-08T01:12:02.358Z,9.50
2023-03-08T01:14:30.022Z,10.00
2023-03-08T01:16:56.460Z,10.00
2023-03-08T01:19:22.897Z,10.20
2023-03-08T01:21:49.328Z,10.63
2023-03-08T01:24:15.694Z,10.17
2023-03-08T01:26:42.103Z,9.50
2023-03-08T01:29:08.413Z,9.97
2023-03-08T01:31:34.944Z,9.17
2023-03-08T01:34:01.497Z,10.03
2023-03-08T01:36:28.351Z,8.73
2023-03-08T01:38:54.948Z,9.13
2023-03-08T01:41:30.387Z,8.93
2023-03-08T01:43:57.677Z,9.30
2023-03-08T01:46:36.630Z,8.67
2023-03-08T01:49:05.956Z,9.20
2023-03-08T01:51:44.349Z,8.30
2023-03-08T01:54:15.620Z,9.30
2023-03-08T01:56:44.839Z,8.83
2023-03-08T01:59:12.225Z,9.17
2023-03-08T02:01:39.235Z,8.47
2023-03-08T02:04:06.628Z,8.87
2023-03-08T02:06:33.644Z,8.80
2023-03-08T02:09:04.323Z,9.57
2023-03-08T02:11:32.546Z,9.20
2023-03-08T02:13:59.221Z,9.20
2023-03-08T02:16:25.709Z,8.63
2023-03-08T02:18:55.512Z,9.13
2023-03-08T02:21:22.770Z,8.93
2023-03-08T02:23:49.255Z,9.13
2023-03-08T02:26:16.651Z,8.70
2023-03-08T02:28:43.693Z,8.23
2023-03-08T02:31:11.985Z,9.83
2023-03-08T02:33:38.632Z,9.40
2023-03-08T02:36:08.246Z,8.30
2023-03-08T02:38:35.313Z,9.33
2023-03-08T02:41:01.668Z,9.00
2023-03-08T02:43:28.677Z,8.43
2023-03-08T02:45:55.024Z,8.20
2023-03-08T02:48:21.525Z,8.33
2023-03-08T02:50:47.921Z,8.20
2023-03-08T02:53:14.295Z,9.40
2023-03-08T02:55:40.637Z,8.33
2023-03-08T02:58:09.634Z,8.70
2023-03-08T03:00:36.946Z,8.20
2023-03-08T03:03:03.424Z,8.57
2023-03-08T03:05:29.864Z,8.77
2023-03-08T03:07:58.467Z,8.77
2023-03-08T03:10:25.213Z,8.70
2023-03-08T03:12:51.623Z,8.90
2023-03-08T03:15:18.103Z,8.03
2023-03-08T03:17:44.565Z,8.70
2023-03-08T03:20:11.568Z,9.40
2023-03-08T03:22:38.095Z,8.47
2023-03-08T03:25:05.605Z,9.33
2023-03-08T03:27:32.015Z,8.93
2023-03-08T03:29:58.641Z,10.17
2023-03-08T03:32:25.108Z,8.87
2023-03-08T03:34:51.744Z,9.70
2023-03-08T03:37:18.198Z,10.37
2023-03-08T03:39:44.852Z,9.27
2023-03-08T03:42:11.457Z,10.50
2023-03-08T03:44:38.102Z,10.53
2023-03-08T03:47:05.880Z,9.60
2023-03-08T03:49:32.364Z,10.70
2023-03-08T03:51:58.955Z,9.87
2023-03-08T03:54:25.361Z,9.30
2023-03-08T03:56:51.834Z,10.23
2023-03-08T03:59:18.215Z,9.90
2023-03-08T04:01:44.635Z,9.80
2023-03-08T04:04:11.372Z,10.33
2023-03-08T04:06:38.921Z,9.73
2023-03-08T04:09:08.251Z,10.20
2023-03-08T04:11:37.383Z,10.43
2023-03-08T04:14:04.771Z,9.70
2023-03-08T04:16:34.022Z,9.13
2023-03-08T04:19:04.542Z,9.97
2023-03-08T04:21:31.426Z,9.63
2023-03-08T04:24:00.500Z,9.83
2023-03-08T04:26:27.244Z,10.87
2023-03-08T04:28:53.702Z,9.97
2023-03-08T04:31:25.708Z,9.13
2023-03-08T04:33:53.059Z,10.03
2023-03-08T04:36:20.282Z,9.63
2023-03-08T04:38:47.594Z,9.50
2023-03-08T04:41:15.624Z,9.60
2023-03-08T04:43:50.782Z,9.60
2023-03-08T04:46:19.428Z,9.00
2023-03-08T04:48:46.173Z,8.67
2023-03-08T04:51:14.187Z,8.93
2023-03-08T04:53:41.780Z,8.53
2023-03-08T04:56:09.172Z,8.20
2023-03-08T04:58:37.303Z,8.27
2023-03-08T05:01:15.675Z,8.90
2023-03-08T05:03:42.742Z,8.43
2023-03-08T05:06:10.584Z,8.53
2023-03-08T05:08:37.089Z,9.10
2023-03-08T05:11:04.671Z,8.50
2023-03-08T05:13:34.000Z,9.20
2023-03-08T05:16:00.564Z,8.53
2023-03-08T05:18:27.018Z,8.03
2023-03-08T05:20:55.466Z,8.10
2023-03-08T05:23:22.445Z,8.10
2023-03-08T05:25:52.159Z,8.63
2023-03-08T05:28:18.516Z,8.40
2023-03-08T05:30:44.878Z,8.03
2023-03-08T05:33:11.351Z,7.30
2023-03-08T05:35:37.823Z,8.27
2023-03-08T05:38:04.259Z,8.20
2023-03-08T05:40:30.898Z,7.93
2023-03-08T05:42:57.219Z,8.17
2023-03-08T05:45:23.677Z,7.43
2023-03-08T05:47:50.046Z,7.63
2023-03-08T05:50:16.730Z,7.13
2023-03-08T05:52:43.131Z,7.70
2023-03-08T05:55:09.798Z,7.80
2023-03-08T05:57:36.646Z,8.70
2023-03-08T06:00:04.715Z,7.87
2023-03-08T06:02:31.113Z,7.90
2023-03-08T06:04:57.497Z,7.37
2023-03-08T06:07:24.004Z,8.70
2023-03-08T06:09:51.779Z,8.80
2023-03-08T06:12:18.229Z,7.30
2023-03-08T06:14:44.729Z,7.57
2023-03-08T06:17:11.075Z,7.83
2023-03-08T06:19:37.388Z,8.20
2023-03-08T06:22:03.868Z,8.30
2023-03-08T06:24:30.821Z,8.07
2023-03-08T06:26:57.244Z,8.27
2023-03-08T06:29:23.697Z,8.67
2023-03-08T06:31:50.069Z,7.40
2023-03-08T06:34:16.430Z,7.47
2023-03-08T06:36:43.168Z,7.60
2023-03-08T06:39:09.930Z,7.70
2023-03-08T06:41:36.371Z,7.67
2023-03-08T06:44:02.996Z,7.00
2023-03-08T06:46:29.384Z,6.77
2023-03-08T06:48:55.953Z,6.40
2023-03-08T06:51:22.417Z,6.90
2023-03-08T06:53:48.794Z,5.80
2023-03-08T06:56:16.711Z,5.87
2023-03-08T06:58:43.303Z,5.40
2023-03-08T07:01:10.896Z,5.30
2023-03-08T07:03:37.709Z,5.77
2023-03-08T07:06:09.901Z,4.93
2023-03-08T07:08:38.138Z,5.30
2023-03-08T07:11:04.768Z,4.70
2023-03-08T07:13:31.307Z,5.40
2023-03-08T07:15:57.798Z,4.50
2023-03-08T07:18:24.787Z,5.43
2023-03-08T07:20:57.498Z,5.57
2023-03-08T07:23:23.999Z,4.90
2023-03-08T07:25:50.546Z,5.13
2023-03-08T07:28:16.873Z,4.77
2023-03-08T07:30:48.606Z,4.87
2023-03-08T07:33:15.543Z,5.40
2023-03-08T07:35:41.942Z,5.53
2023-03-08T07:38:08.473Z,5.27
2023-03-08T07:40:34.912Z,5.43
2023-03-08T07:43:01.284Z,5.67
2023-03-08T07:45:27.730Z,6.13
2023-03-08T07:47:54.676Z,5.80
2023-03-08T07:50:22.027Z,5.43
2023-03-08T07:52:49.077Z,5.83
2023-03-08T07:55:16.000Z,5.63
2023-03-08T07:57:42.426Z,6.07
2023-03-08T08:00:10.899Z,6.10
2023-03-08T08:02:37.344Z,5.97
2023-03-08T08:05:04.640Z,6.27
2023-03-08T08:07:31.173Z,5.93
2023-03-08T08:09:57.564Z,5.67
2023-03-08T08:12:23.924Z,5.60
2023-03-08T08:14:52.378Z,6.17
2023-03-08T08:17:19.600Z,5.83
2023-03-08T08:19:46.456Z,6.17
2023-03-08T08:22:12.806Z,6.20
2023-03-08T08:24:39.288Z,6.30
2023-03-08T08:27:06.056Z,6.67
2023-03-08T08:29:32.825Z,6.83
2023-03-08T08:31:59.212Z,6.40
2023-03-08T08:34:25.847Z,6.10
2023-03-08T08:36:52.184Z,6.10
2023-03-08T08:39:18.512Z,6.67
2023-03-08T08:41:44.863Z,6.97
2023-03-08T08:44:11.206Z,6.53
2023-03-08T08:46:38.189Z,6.90
2023-03-08T08:49:07.525Z,6.73
2023-03-08T08:51:33.965Z,6.80
2023-03-08T08:54:00.613Z,7.73
2023-03-08T08:56:28.881Z,8.53
2023-03-08T08:59:00.943Z,7.53
2023-03-08T09:01:30.870Z,7.17
2023-03-08T09:03:57.842Z,7.10
2023-03-08T09:06:25.778Z,7.00
2023-03-08T09:08:55.185Z,7.40
2023-03-08T09:11:22.974Z,7.50
2023-03-08T09:13:49.582Z,7.23
2023-03-08T09:16:22.875Z,7.10
2023-03-08T09:18:50.028Z,7.20
2023-03-08T09:21:16.863Z,7.17
2023-03-08T09:23:43.600Z,7.67
2023-03-08T09:26:10.912Z,7.33
2023-03-08T09:28:37.478Z,7.47
2023-03-08T09:31:14.791Z,6.73
2023-03-08T09:33:44.151Z,8.57
2023-03-08T09:36:11.048Z,8.03
2023-03-08T09:38:37.749Z,7.30
2023-03-08T09:41:19.302Z,8.57
2023-03-08T09:43:59.936Z,7.50
2023-03-08T09:46:35.996Z,7.50
2023-03-08T09:49:07.087Z,8.00
2023-03-08T09:51:38.400Z,7.83
2023-03-08T09:54:13.981Z,8.90
2023-03-08T09:56:48.071Z,8.23
2023-03-08T09:59:44.560Z,8.80
2023-03-08T10:02:32.683Z,7.77
2023-03-08T10:05:13.756Z,8.20
2023-03-08T10:07:56.644Z,8.20
2023-03-08T10:10:47.071Z,7.73
2023-03-08T10:13:25.572Z,8.37
2023-03-08T10:15:57.720Z,8.97
2023-03-08T10:18:31.771Z,8.23
2023-03-08T10:21:00.963Z,9.20
2023-03-08T10:23:32.392Z,9.60
2023-03-08T10:26:00.316Z,8.80
2023-03-08T10:28:27.776Z,8.43
2023-03-08T10:30:59.950Z,9.00
2023-03-08T10:33:32.831Z,8.17
2023-03-08T10:36:17.986Z,8.10
2023-03-08T10:38:55.212Z,8.33
2023-03-08T10:41:21.890Z,8.90
2023-03-08T10:43:53.925Z,7.83
2023-03-08T10:46:22.896Z,7.47
2023-03-08T10:48:49.515Z,8.33
2023-03-08T10:51:21.504Z,8.40
2023-03-08T10:53:56.168Z,7.17
2023-03-08T10:56:31.194Z,7.80
2023-03-08T10:58:58.492Z,7.70
2023-03-08T11:01:31.090Z,8.00
2023-03-08T11:04:16.238Z,8.00
2023-03-08T11:06:43.189Z,7.77
2023-03-08T11:09:29.727Z,8.17
2023-03-08T11:12:00.579Z,8.57
2023-03-08T11:14:28.434Z,7.63
2023-03-08T11:17:17.982Z,8.00
2023-03-08T11:20:11.143Z,8.43
2023-03-08T11:22:59.015Z,7.73
2023-03-08T11:25:57.301Z,8.17
2023-03-08T11:28:48.597Z,7.53
2023-03-08T11:31:18.079Z,7.73
2023-03-08T11:34:21.574Z,8.53
2023-03-08T11:36:56.749Z,8.07
2023-03-08T11:39:28.941Z,8.50
2023-03-08T11:42:16.513Z,8.47
2023-03-08T11:45:19.419Z,7.93
2023-03-08T11:47:57.372Z,7.40
2023-03-08T11:50:28.673Z,8.10
2023-03-08T11:53:13.334Z,8.93
2023-03-08T11:55:52.113Z,8.53
2023-03-08T11:58:28.566Z,9.47
2023-03-08T12:01:01.269Z,9.10
2023-03-08T12:03:36.074Z,8.70
2023-03-08T12:06:29.093Z,8.23
2023-03-08T12:09:08.750Z,8.60
2023-03-08T12:11:41.780Z,8.17
2023-03-08T12:14:22.926Z,10.10
2023-03-08T12:17:02.495Z,8.37
2023-03-08T12:19:42.034Z,8.23
2023-03-08T12:22:39.183Z,8.57
2023-03-08T12:25:15.710Z,8.73
2023-03-08T12:28:11.805Z,8.23
2023-03-08T12:31:24.869Z,8.43
2023-03-08T12:33:54.069Z,7.30
2023-03-08T12:36:24.308Z,7.27
2023-03-08T12:38:56.593Z,7.73
2023-03-08T12:41:28.990Z,7.47
2023-03-08T12:44:22.609Z,8.03
2023-03-08T12:47:02.452Z,7.43
2023-03-08T12:49:33.916Z,6.97
2023-03-08T12:52:06.812Z,7.77
2023-03-08T12:54:35.394Z,7.83
2023-03-08T12:57:13.905Z,7.40
2023-03-08T12:59:41.215Z,7.87
2023-03-08T13:02:30.971Z,7.57
2023-03-08T13:05:15.656Z,7.33
2023-03-08T13:08:08.857Z,6.80
2023-03-08T13:10:52.195Z,6.70
2023-03-08T13:13:38.060Z,6.33
2023-03-08T13:16:19.308Z,7.40
2023-03-08T13:18:48.601Z,6.83
2023-03-08T13:21:14.976Z,7.43
2023-03-08T13:23:58.443Z,7.10
2023-03-08T13:26:54.357Z,7.23
2023-03-08T13:29:21.417Z,7.40
2023-03-08T13:31:48.469Z,7.07
2023-03-08T13:34:23.893Z,6.83
2023-03-08T13:36:50.271Z,7.77
2023-03-08T13:39:25.294Z,7.10
2023-03-08T13:41:52.180Z,6.80
2023-03-08T13:44:23.119Z,6.90
2023-03-08T13:46:54.091Z,7.37
2023-03-08T13:49:25.686Z,7.53
2023-03-08T13:51:55.619Z,8.10
2023-03-08T13:54:29.629Z,8.13
2023-03-08T13:56:59.872Z,7.20
2023-03-08T13:59:27.169Z,7.57
2023-03-08T14:01:54.458Z,8.83
2023-03-08T14:04:24.073Z,8.00
2023-03-08T14:07:19.980Z,8.27
2023-03-08T14:09:46.339Z,8.63
2023-03-08T14:12:16.924Z,10.37
2023-03-08T14:14:46.640Z,8.00
2023-03-08T14:17:24.959Z,7.73
2023-03-08T14:20:16.683Z,6.77
2023-03-08T14:22:47.659Z,6.80
2023-03-08T14:25:40.348Z,6.80
2023-03-08T14:28:39.030Z,8.07
2023-03-08T14:31:27.405Z,7.37
2023-03-08T14:33:57.170Z,7.03
2023-03-08T14:36:24.148Z,7.47
2023-03-08T14:38:50.774Z,7.17
2023-03-08T14:41:17.391Z,7.07
2023-03-08T14:43:49.407Z,7.47
2023-03-08T14:46:20.326Z,7.40
2023-03-08T14:48:57.356Z,6.93
2023-03-08T14:51:42.658Z,6.83
2023-03-08T14:54:32.766Z,6.57
2023-03-08T14:57:15.235Z,8.60
2023-03-08T14:59:42.666Z,6.50
2023-03-08T15:02:13.681Z,9.47
2023-03-08T15:04:40.907Z,7.70
2023-03-08T15:07:08.461Z,7.17
2023-03-08T15:09:34.994Z,6.53
2023-03-08T15:12:01.714Z,6.17
2023-03-08T15:14:30.506Z,7.10
2023-03-08T15:16:58.130Z,5.97
2023-03-08T15:19:24.829Z,6.67
2023-03-08T15:21:51.464Z,6.67
2023-03-08T15:24:18.993Z,6.53
2023-03-08T15:26:45.913Z,7.03
2023-03-08T15:29:26.656Z,7.30
2023-03-08T15:31:53.491Z,7.87
2023-03-08T15:34:20.171Z,7.80
2023-03-08T15:36:48.245Z,7.63
2023-03-08T15:39:14.847Z,7.70
2023-03-08T15:41:41.272Z,8.93
2023-03-08T15:44:08.065Z,7.37
2023-03-08T15:46:34.660Z,7.33
2023-03-08T15:49:01.013Z,6.70
2023-03-08T15:51:35.864Z,7.23
2023-03-08T15:54:04.239Z,7.50
2023-03-08T15:56:30.658Z,8.30
2023-03-08T15:58:57.131Z,7.67
2023-03-08T16:01:26.182Z,8.13
2023-03-08T16:03:54.194Z,8.43
2023-03-08T16:06:21.123Z,7.97
2023-03-08T16:08:47.508Z,7.10
2023-03-08T16:11:17.361Z,7.27
2023-03-08T16:13:44.075Z,7.27
2023-03-08T16:16:10.868Z,6.97
2023-03-08T16:18:40.259Z,7.43
2023-03-08T16:21:08.987Z,7.17
2023-03-08T16:23:36.214Z,7.43
2023-03-08T16:26:15.103Z,7.20
2023-03-08T16:28:43.545Z,7.00
2023-03-08T16:31:09.935Z,7.40
2023-03-08T16:33:36.659Z,6.77
2023-03-08T16:36:03.830Z,7.23
2023-03-08T16:38:30.302Z,6.50
2023-03-08T16:41:11.493Z,6.30
2023-03-08T16:43:46.267Z,6.47
2023-03-08T16:46:16.098Z,6.97
2023-03-08T16:48:42.656Z,7.17
2023-03-08T16:51:13.832Z,7.97
2023-03-08T16:53:40.353Z,7.33
2023-03-08T16:56:07.069Z,9.43
2023-03-08T16:58:33.408Z,8.40
2023-03-08T17:00:59.800Z,9.37
2023-03-08T17:03:26.361Z,7.93
2023-03-08T17:05:52.838Z,11.17
2023-03-08T17:08:19.372Z,9.63
2023-03-08T17:10:45.775Z,8.67
2023-03-08T17:13:12.550Z,8.70
2023-03-08T17:15:44.207Z,9.00
2023-03-08T17:18:10.850Z,9.87
2023-03-08T17:20:41.817Z,9.10
2023-03-08T17:23:10.400Z,9.23
2023-03-08T17:25:40.996Z,9.83
2023-03-08T17:28:08.788Z,9.60
2023-03-08T17:30:35.861Z,10.07
2023-03-08T17:33:02.368Z,9.43
2023-03-08T17:35:28.848Z,9.43
2023-03-08T17:37:55.280Z,10.43
2023-03-08T17:40:21.948Z,11.53
2023-03-08T17:42:48.362Z,9.97
2023-03-08T17:45:16.048Z,10.07
2023-03-08T17:47:42.500Z,9.90
2023-03-08T17:50:11.282Z,10.77
2023-03-08T17:52:37.612Z,11.20
2023-03-08T17:55:04.292Z,13.67
2023-03-08T17:57:30.985Z,10.23
2023-03-08T17:59:57.400Z,9.43
2023-03-08T18:02:24.263Z,10.33
2023-03-08T18:04:51.101Z,11.93
2023-03-08T18:07:18.807Z,12.07
2023-03-08T18:09:45.944Z,10.10
2023-03-08T18:12:12.479Z,10.77
2023-03-08T18:14:40.128Z,11.23
2023-03-08T18:17:07.777Z,18.00
2023-03-08T18:19:34.264Z,17.20
2023-03-08T18:22:00.746Z,14.87
2023-03-08T18:24:27.636Z,15.33
2023-03-08T18:26:54.111Z,12.00
2023-03-08T18:29:20.492Z,14.27
2023-03-08T18:31:47.060Z,12.13
2023-03-08T18:34:13.419Z,11.63
2023-03-08T18:36:40.801Z,11.20
2023-03-08T18:39:12.030Z,12.43
2023-03-08T18:41:38.903Z,12.30
2023-03-08T18:44:05.911Z,11.90
2023-03-08T18:46:33.566Z,13.57
2023-03-08T18:49:03.331Z,12.77
2023-03-08T18:51:31.734Z,12.60
2023-03-08T18:53:58.876Z,12.80
2023-03-08T18:56:26.126Z,12.17
2023-03-08T18:58:58.392Z,12.23
2023-03-08T19:01:25.322Z,13.67
2023-03-08T19:03:52.087Z,14.27
2023-03-08T19:06:18.523Z,15.10
2023-03-08T19:08:44.890Z,14.37
2023-03-08T19:11:13.493Z,14.47
2023-03-08T19:13:41.122Z,14.20
2023-03-08T19:16:21.057Z,13.40
2023-03-08T19:18:48.781Z,14.60
2023-03-08T19:21:17.620Z,14.23
2023-03-08T19:23:44.277Z,14.53
2023-03-08T19:26:46.120Z,15.57
2023-03-08T19:29:30.339Z,13.83
2023-03-08T19:32:05.440Z,13.73
2023-03-08T19:34:34.616Z,13.80
2023-03-08T19:37:01.621Z,13.93
2023-03-08T19:39:33.393Z,14.00
2023-03-08T19:42:12.350Z,12.97
2023-03-08T19:44:38.753Z,13.60
2023-03-08T19:47:05.413Z,13.87
2023-03-08T19:49:35.560Z,13.10
2023-03-08T19:52:05.202Z,12.70
2023-03-08T19:54:31.772Z,13.27
2023-03-08T19:56:59.014Z,12.87
2023-03-08T19:59:25.789Z,14.13
2023-03-08T20:01:54.471Z,13.80
2023-03-08T20:04:21.910Z,13.80
2023-03-08T20:06:49.380Z,13.77
2023-03-08T20:09:21.294Z,14.17
2023-03-08T20:11:50.500Z,13.93
2023-03-08T20:14:16.869Z,15.17
2023-03-08T20:16:43.268Z,14.40
2023-03-08T20:19:09.694Z,14.60
2023-03-08T20:21:37.706Z,15.50
2023-03-08T20:24:04.162Z,15.47
2023-03-08T20:26:33.065Z,16.30
2023-03-08T20:29:00.450Z,18.00
2023-03-08T20:31:29.106Z,17.00
2023-03-08T20:33:55.797Z,17.53
2023-03-08T20:36:23.631Z,17.43
2023-03-08T20:38:50.021Z,18.80
2023-03-08T20:41:18.992Z,19.67
2023-03-08T20:43:47.180Z,18.83
2023-03-08T20:46:16.306Z,19.10
2023-03-08T20:48:44.791Z,18.97
2023-03-08T20:51:14.201Z,19.27
2023-03-08T20:53:41.980Z,19.17
2023-03-08T20:56:11.683Z,18.07
2023-03-08T20:58:38.469Z,19.30
2023-03-08T21:01:17.858Z,18.67
2023-03-08T21:03:45.624Z,18.63
2023-03-08T21:06:14.747Z,18.33
2023-03-08T21:08:41.223Z,18.73
2023-03-08T21:11:07.910Z,20.10
2023-03-08T21:13:34.331Z,22.03
2023-03-08T21:16:06.144Z,20.60
2023-03-08T21:18:32.659Z,19.77
2023-03-08T21:20:59.582Z,18.93
2023-03-08T21:23:26.419Z,20.07
2023-03-08T21:25:53.630Z,19.63
2023-03-08T21:28:21.587Z,19.70
2023-03-08T21:30:48.735Z,19.53
2023-03-08T21:33:15.396Z,19.00
2023-03-08T21:35:42.708Z,21.13
2023-03-08T21:38:09.450Z,20.30
2023-03-08T21:40:41.882Z,21.83
2023-03-08T21:43:08.858Z,20.60
2023-03-08T21:45:42.515Z,21.03
2023-03-08T21:48:09.771Z,21.17
2023-03-08T21:50:40.262Z,21.20
2023-03-08T21:53:08.213Z,19.60
2023-03-08T21:55:38.267Z,20.20
2023-03-08T21:58:05.687Z,20.47
2023-03-08T22:00:32.352Z,19.10
2023-03-08T22:02:59.279Z,20.77
2023-03-08T22:05:25.907Z,20.43
2023-03-08T22:07:52.389Z,20.97
2023-03-08T22:10:20.275Z,21.47
2023-03-08T22:12:47.394Z,19.10
2023-03-08T22:15:15.898Z,19.90
2023-03-08T22:17:43.094Z,21.80
2023-03-08T22:20:11.042Z,21.97
2023-03-08T22:22:38.489Z,22.20
2023-03-08T22:25:06.540Z,21.63
2023-03-08T22:27:33.389Z,21.60
2023-03-08T22:29:59.916Z,21.43
2023-03-08T22:32:26.644Z,20.87
2023-03-08T22:34:53.059Z,21.07
2023-03-08T22:37:19.489Z,18.97
2023-03-08T22:39:45.965Z,20.20
2023-03-08T22:42:12.410Z,18.73
2023-03-08T22:44:38.813Z,21.33
2023-03-08T22:47:05.461Z,20.43
2023-03-08T22:49:31.903Z,20.73
2023-03-08T22:51:58.265Z,21.17
2023-03-08T22:54:24.850Z,19.03
2023-03-08T22:56:51.358Z,20.90
2023-03-08T22:59:17.773Z,19.63
2023-03-08T23:01:44.280Z,18.80
2023-03-08T23:04:13.255Z,19.47
2023-03-08T23:06:40.003Z,19.23
2023-03-08T23:09:10.078Z,20.00
2023-03-08T23:11:37.370Z,21.63
2023-03-08T23:14:04.486Z,23.87
2023-03-08T23:16:31.128Z,21.83
2023-03-08T23:18:57.786Z,22.77
2023-03-08T23:21:26.216Z,21.37
2023-03-08T23:23:52.710Z,22.63
2023-03-08T23:26:23.839Z,22.47
2023-03-08T23:28:50.484Z,21.47
2023-03-08T23:31:20.421Z,21.57
2023-03-08T23:33:47.517Z,21.03
2023-03-08T23:36:16.497Z,20.43
2023-03-08T23:38:43.910Z,20.17
2023-03-08T23:41:11.975Z,18.80
2023-03-08T23:43:39.361Z,20.27
2023-03-08T23:46:14.611Z,19.70
2023-03-08T23:48:41.768Z,19.27
2023-03-08T23:51:11.902Z,19.43
2023-03-08T23:53:38.703Z,19.00
2023-03-08T23:56:05.872Z,20.83
2023-03-08T23:58:32.887Z,19.30
